sensor_id;sensor_type;location;lat;lon;timestamp;pressure;altitude;pressure_sealevel;temperature;humidity
72961;BME280;61141;46.204;19.774;2023-04-08T00:01:01;100626.13;;;5.17;95.63
72961;BME280;61141;46.204;19.774;2023-04-08T00:04:05;100625.94;;;5.22;94.94
72961;BME280;61141;46.204;19.774;2023-04-08T00:07:11;100617.06;;;5.13;95.42
72961;BME280;61141;46.204;19.774;2023-04-08T00:10:14;100618.00;;;5.17;95.52
72961;BME280;61141;46.204;19.774;2023-04-08T00:13:16;100616.41;;;5.16;95.36
72961;BME280;61141;46.204;19.774;2023-04-08T00:16:19;100614.34;;;5.13;95.52
72961;BME280;61141;46.204;19.774;2023-04-08T00:19:22;100613.56;;;5.13;95.42
72961;BME280;61141;46.204;19.774;2023-04-08T00:22:26;100618.19;;;5.12;95.52
72961;BME280;61141;46.204;19.774;2023-04-08T00:25:29;100623.78;;;5.07;95.82
72961;BME280;61141;46.204;19.774;2023-04-08T00:28:33;100623.44;;;5.09;95.94
72961;BME280;61141;46.204;19.774;2023-04-08T00:31:35;100625.25;;;5.05;95.94
72961;BME280;61141;46.204;19.774;2023-04-08T00:34:38;100627.31;;;5.08;95.91
72961;BME280;61141;46.204;19.774;2023-04-08T00:37:41;100629.87;;;5.04;95.98
72961;BME280;61141;46.204;19.774;2023-04-08T00:40:46;100628.59;;;5.02;95.89
72961;BME280;61141;46.204;19.774;2023-04-08T00:43:49;100638.84;;;4.96;96.31
72961;BME280;61141;46.204;19.774;2023-04-08T00:46:52;100612.72;;;4.83;96.05
72961;BME280;61141;46.204;19.774;2023-04-08T00:49:55;100636.00;;;4.84;96.79
72961;BME280;61141;46.204;19.774;2023-04-08T00:52:58;100634.09;;;4.76;96.88
72961;BME280;61141;46.204;19.774;2023-04-08T00:56:01;100629.31;;;4.73;96.89
72961;BME280;61141;46.204;19.774;2023-04-08T00:59:04;100640.16;;;4.73;97.08
72961;BME280;61141;46.204;19.774;2023-04-08T01:02:17;100630.94;;;4.57;97.47
72961;BME280;61141;46.204;19.774;2023-04-08T01:08:41;100632.06;;;4.56;97.57
72961;BME280;61141;46.204;19.774;2023-04-08T01:11:48;100628.06;;;4.62;96.99
72961;BME280;61141;46.204;19.774;2023-04-08T01:14:58;100615.84;;;4.39;97.77
72961;BME280;61141;46.204;19.774;2023-04-08T01:18:08;100622.34;;;4.46;97.68
72961;BME280;61141;46.204;19.774;2023-04-08T01:21:13;100614.06;;;4.43;98.10
72961;BME280;61141;46.204;19.774;2023-04-08T01:24:28;100627.16;;;4.41;98.22
72961;BME280;61141;46.204;19.774;2023-04-08T01:27:34;100619.19;;;4.44;97.64
72961;BME280;61141;46.204;19.774;2023-04-08T01:30:38;100621.88;;;4.53;97.04
72961;BME280;61141;46.204;19.774;2023-04-08T01:33:43;100622.66;;;4.45;97.37
72961;BME280;61141;46.204;19.774;2023-04-08T01:36:47;100621.25;;;4.39;97.66
72961;BME280;61141;46.204;19.774;2023-04-08T01:39:51;100621.88;;;4.44;97.70
72961;BME280;61141;46.204;19.774;2023-04-08T01:42:57;100633.06;;;4.26;98.00
72961;BME280;61141;46.204;19.774;2023-04-08T01:46:02;100620.00;;;4.28;97.68
72961;BME280;61141;46.204;19.774;2023-04-08T01:49:06;100604.19;;;4.38;97.74
72961;BME280;61141;46.204;19.774;2023-04-08T01:52:10;100611.34;;;4.51;97.72
72961;BME280;61141;46.204;19.774;2023-04-08T01:55:15;100609.72;;;4.50;98.25
72961;BME280;61141;46.204;19.774;2023-04-08T01:58:20;100619.00;;;4.58;97.82
72961;BME280;61141;46.204;19.774;2023-04-08T02:01:24;100625.25;;;4.41;98.84
72961;BME280;61141;46.204;19.774;2023-04-08T02:04:28;100624.28;;;4.46;98.42
72961;BME280;61141;46.204;19.774;2023-04-08T02:07:31;100625.22;;;4.50;98.41
72961;BME280;61141;46.204;19.774;2023-04-08T02:10:36;100634.00;;;4.47;98.61
72961;BME280;61141;46.204;19.774;2023-04-08T02:13:39;100623.97;;;4.39;98.74
72961;BME280;61141;46.204;19.774;2023-04-08T02:16:49;100628.91;;;4.37;98.71
72961;BME280;61141;46.204;19.774;2023-04-08T02:20:06;100631.78;;;4.32;98.21
72961;BME280;61141;46.204;19.774;2023-04-08T02:23:20;100630.97;;;4.40;97.85
72961;BME280;61141;46.204;19.774;2023-04-08T02:26:24;100634.66;;;4.27;97.86
72961;BME280;61141;46.204;19.774;2023-04-08T02:29:30;100636.09;;;4.15;98.17
72961;BME280;61141;46.204;19.774;2023-04-08T02:32:34;100638.16;;;4.01;98.45
72961;BME280;61141;46.204;19.774;2023-04-08T02:35:39;100629.84;;;3.98;98.41
72961;BME280;61141;46.204;19.774;2023-04-08T02:38:49;100623.78;;;3.92;98.54
72961;BME280;61141;46.204;19.774;2023-04-08T02:41:53;100637.69;;;3.99;98.39
72961;BME280;61141;46.204;19.774;2023-04-08T02:44:56;100635.44;;;3.84;98.62
72961;BME280;61141;46.204;19.774;2023-04-08T02:47:59;100627.28;;;3.76;98.89
72961;BME280;61141;46.204;19.774;2023-04-08T02:51:03;100617.09;;;3.73;98.73
72961;BME280;61141;46.204;19.774;2023-04-08T02:54:06;100633.84;;;3.75;98.70
72961;BME280;61141;46.204;19.774;2023-04-08T02:57:08;100623.00;;;3.75;98.24
72961;BME280;61141;46.204;19.774;2023-04-08T03:00:14;100630.78;;;3.68;98.39
72961;BME280;61141;46.204;19.774;2023-04-08T03:03:17;100612.47;;;3.56;97.93
72961;BME280;61141;46.204;19.774;2023-04-08T03:06:25;100626.78;;;3.56;98.25
72961;BME280;61141;46.204;19.774;2023-04-08T03:09:28;100632.97;;;3.48;98.32
72961;BME280;61141;46.204;19.774;2023-04-08T03:12:31;100625.97;;;3.47;98.07
72961;BME280;61141;46.204;19.774;2023-04-08T03:15:34;100625.81;;;3.44;98.05
72961;BME280;61141;46.204;19.774;2023-04-08T03:18:37;100623.69;;;3.32;98.48
72961;BME280;61141;46.204;19.774;2023-04-08T03:21:40;100622.41;;;3.30;98.72
72961;BME280;61141;46.204;19.774;2023-04-08T03:24:43;100628.19;;;3.45;98.20
72961;BME280;61141;46.204;19.774;2023-04-08T03:27:46;100631.22;;;3.44;98.27
72961;BME280;61141;46.204;19.774;2023-04-08T03:30:49;100629.47;;;3.48;97.46
72961;BME280;61141;46.204;19.774;2023-04-08T03:33:52;100617.28;;;3.20;97.93
72961;BME280;61141;46.204;19.774;2023-04-08T03:36:55;100629.66;;;3.12;98.02
72961;BME280;61141;46.204;19.774;2023-04-08T03:39:58;100628.53;;;3.05;98.26
72961;BME280;61141;46.204;19.774;2023-04-08T03:43:01;100627.97;;;3.25;98.73
72961;BME280;61141;46.204;19.774;2023-04-08T03:46:03;100623.47;;;3.12;99.31
72961;BME280;61141;46.204;19.774;2023-04-08T03:49:06;100623.59;;;3.07;99.04
72961;BME280;61141;46.204;19.774;2023-04-08T03:52:09;100629.41;;;2.91;99.23
72961;BME280;61141;46.204;19.774;2023-04-08T03:55:12;100620.72;;;3.03;98.46
72961;BME280;61141;46.204;19.774;2023-04-08T03:58:14;100620.72;;;3.03;98.58
72961;BME280;61141;46.204;19.774;2023-04-08T04:01:18;100624.19;;;2.95;98.24
72961;BME280;61141;46.204;19.774;2023-04-08T04:04:22;100629.09;;;2.84;98.72
72961;BME280;61141;46.204;19.774;2023-04-08T04:07:25;100620.19;;;2.62;99.20
72961;BME280;61141;46.204;19.774;2023-04-08T04:10:28;100649.50;;;2.68;99.66
72961;BME280;61141;46.204;19.774;2023-04-08T04:13:31;100648.31;;;2.83;99.06
72961;BME280;61141;46.204;19.774;2023-04-08T04:16:34;100645.66;;;2.91;99.04
72961;BME280;61141;46.204;19.774;2023-04-08T04:19:36;100652.22;;;2.99;99.06
72961;BME280;61141;46.204;19.774;2023-04-08T04:22:39;100657.91;;;2.89;99.39
72961;BME280;61141;46.204;19.774;2023-04-08T04:25:42;100665.88;;;2.94;99.05
72961;BME280;61141;46.204;19.774;2023-04-08T04:28:46;100666.81;;;2.89;99.17
72961;BME280;61141;46.204;19.774;2023-04-08T04:31:49;100673.06;;;2.98;98.57
72961;BME280;61141;46.204;19.774;2023-04-08T04:34:52;100677.22;;;3.05;98.61
72961;BME280;61141;46.204;19.774;2023-04-08T04:37:54;100674.94;;;3.20;98.24
72961;BME280;61141;46.204;19.774;2023-04-08T04:40:58;100685.44;;;3.22;98.10
72961;BME280;61141;46.204;19.774;2023-04-08T04:44:01;100670.09;;;3.09;98.43
72961;BME280;61141;46.204;19.774;2023-04-08T04:47:04;100688.81;;;3.27;98.36
72961;BME280;61141;46.204;19.774;2023-04-08T04:50:07;100692.31;;;3.28;98.21
72961;BME280;61141;46.204;19.774;2023-04-08T04:53:10;100691.06;;;3.34;98.07
72961;BME280;61141;46.204;19.774;2023-04-08T04:56:13;100689.28;;;3.29;98.32
72961;BME280;61141;46.204;19.774;2023-04-08T04:59:16;100702.44;;;3.53;97.78
72961;BME280;61141;46.204;19.774;2023-04-08T05:02:18;100699.91;;;3.56;97.91
72961;BME280;61141;46.204;19.774;2023-04-08T05:05:22;100702.31;;;3.58;97.76
72961;BME280;61141;46.204;19.774;2023-04-08T05:08:24;100703.12;;;3.76;97.08
72961;BME280;61141;46.204;19.774;2023-04-08T05:11:29;100685.31;;;3.75;96.60
72961;BME280;61141;46.204;19.774;2023-04-08T05:14:32;100703.66;;;3.86;97.39
72961;BME280;61141;46.204;19.774;2023-04-08T05:17:35;100715.59;;;3.85;98.12
72961;BME280;61141;46.204;19.774;2023-04-08T05:20:38;100709.84;;;3.87;98.46
72961;BME280;61141;46.204;19.774;2023-04-08T05:23:41;100721.06;;;4.02;98.84
72961;BME280;61141;46.204;19.774;2023-04-08T05:26:43;100722.66;;;4.12;98.56
72961;BME280;61141;46.204;19.774;2023-04-08T05:29:47;100732.06;;;4.14;99.40
72961;BME280;61141;46.204;19.774;2023-04-08T05:32:50;100736.72;;;4.14;99.94
72961;BME280;61141;46.204;19.774;2023-04-08T05:35:53;100731.63;;;4.38;98.37
72961;BME280;61141;46.204;19.774;2023-04-08T05:38:55;100727.31;;;4.46;98.55
72961;BME280;61141;46.204;19.774;2023-04-08T05:41:59;100745.34;;;4.50;98.50
72961;BME280;61141;46.204;19.774;2023-04-08T05:45:02;100749.03;;;4.54;98.52
72961;BME280;61141;46.204;19.774;2023-04-08T05:48:05;100743.13;;;4.69;97.75
72961;BME280;61141;46.204;19.774;2023-04-08T05:51:13;100753.19;;;4.78;97.70
72961;BME280;61141;46.204;19.774;2023-04-08T05:54:16;100748.87;;;4.85;97.71
72961;BME280;61141;46.204;19.774;2023-04-08T05:57:18;100740.84;;;4.97;97.36
72961;BME280;61141;46.204;19.774;2023-04-08T06:00:22;100746.13;;;5.02;97.57
72961;BME280;61141;46.204;19.774;2023-04-08T06:03:25;100736.88;;;4.86;98.40
72961;BME280;61141;46.204;19.774;2023-04-08T06:06:28;100735.75;;;4.96;97.78
72961;BME280;61141;46.204;19.774;2023-04-08T06:09:34;100748.34;;;5.09;97.90
72961;BME280;61141;46.204;19.774;2023-04-08T06:12:37;100748.06;;;4.93;98.73
72961;BME280;61141;46.204;19.774;2023-04-08T06:15:41;100744.34;;;5.06;98.03
72961;BME280;61141;46.204;19.774;2023-04-08T06:18:43;100752.53;;;4.89;99.37
72961;BME280;61141;46.204;19.774;2023-04-08T06:21:46;100744.06;;;4.99;98.71
72961;BME280;61141;46.204;19.774;2023-04-08T06:24:49;100763.19;;;5.20;98.18
72961;BME280;61141;46.204;19.774;2023-04-08T06:27:52;100758.19;;;5.30;98.20
72961;BME280;61141;46.204;19.774;2023-04-08T06:30:55;100757.75;;;5.11;98.94
72961;BME280;61141;46.204;19.774;2023-04-08T06:33:58;100760.66;;;4.98;99.29
72961;BME280;61141;46.204;19.774;2023-04-08T06:37:01;100768.13;;;5.26;98.41
72961;BME280;61141;46.204;19.774;2023-04-08T06:40:04;100769.00;;;5.48;97.77
72961;BME280;61141;46.204;19.774;2023-04-08T06:43:09;100761.63;;;5.57;97.14
72961;BME280;61141;46.204;19.774;2023-04-08T06:46:12;100771.66;;;5.73;96.90
72961;BME280;61141;46.204;19.774;2023-04-08T06:49:15;100759.94;;;5.90;96.45
72961;BME280;61141;46.204;19.774;2023-04-08T06:52:18;100764.06;;;5.96;95.68
72961;BME280;61141;46.204;19.774;2023-04-08T06:55:21;100764.84;;;5.97;95.85
72961;BME280;61141;46.204;19.774;2023-04-08T06:58:24;100772.87;;;5.84;95.84
72961;BME280;61141;46.204;19.774;2023-04-08T07:01:27;100765.13;;;5.66;97.30
72961;BME280;61141;46.204;19.774;2023-04-08T07:04:30;100769.00;;;5.94;96.36
72961;BME280;61141;46.204;19.774;2023-04-08T07:07:32;100772.59;;;6.36;95.11
72961;BME280;61141;46.204;19.774;2023-04-08T07:10:37;100766.81;;;6.17;95.36
72961;BME280;61141;46.204;19.774;2023-04-08T07:13:39;100774.62;;;6.47;94.35
72961;BME280;61141;46.204;19.774;2023-04-08T07:16:42;100765.44;;;6.31;95.11
72961;BME280;61141;46.204;19.774;2023-04-08T07:19:45;100769.97;;;6.69;93.80
72961;BME280;61141;46.204;19.774;2023-04-08T07:22:49;100773.88;;;6.80;92.84
72961;BME280;61141;46.204;19.774;2023-04-08T07:25:52;100759.16;;;6.81;91.60
72961;BME280;61141;46.204;19.774;2023-04-08T07:28:55;100778.19;;;6.81;91.34
72961;BME280;61141;46.204;19.774;2023-04-08T07:31:58;100777.03;;;7.02;90.99
72961;BME280;61141;46.204;19.774;2023-04-08T07:35:01;100789.09;;;6.81;90.51
72961;BME280;61141;46.204;19.774;2023-04-08T07:38:04;100786.66;;;7.21;90.36
72961;BME280;61141;46.204;19.774;2023-04-08T07:41:11;100786.22;;;7.31;87.46
72961;BME280;61141;46.204;19.774;2023-04-08T07:44:13;100796.50;;;7.13;88.89
72961;BME280;61141;46.204;19.774;2023-04-08T07:47:18;100780.66;;;7.27;86.67
72961;BME280;61141;46.204;19.774;2023-04-08T07:50:22;100792.75;;;7.50;86.26
72961;BME280;61141;46.204;19.774;2023-04-08T07:53:25;100804.47;;;7.63;85.97
72961;BME280;61141;46.204;19.774;2023-04-08T07:56:29;100795.88;;;7.28;86.26
72961;BME280;61141;46.204;19.774;2023-04-08T07:59:32;100801.97;;;6.92;86.87
72961;BME280;61141;46.204;19.774;2023-04-08T08:02:35;100797.94;;;7.31;87.12
72961;BME280;61141;46.204;19.774;2023-04-08T08:05:38;100801.47;;;7.11;86.37
72961;BME280;61141;46.204;19.774;2023-04-08T08:08:41;100808.41;;;7.41;85.38
72961;BME280;61141;46.204;19.774;2023-04-08T08:11:44;100816.63;;;7.00;86.78
72961;BME280;61141;46.204;19.774;2023-04-08T08:14:46;100817.38;;;7.42;86.68
72961;BME280;61141;46.204;19.774;2023-04-08T08:17:49;100809.84;;;7.84;82.66
72961;BME280;61141;46.204;19.774;2023-04-08T08:20:53;100818.62;;;7.89;81.40
72961;BME280;61141;46.204;19.774;2023-04-08T08:23:56;100819.09;;;8.27;80.34
72961;BME280;61141;46.204;19.774;2023-04-08T08:27:00;100820.91;;;8.36;79.96
72961;BME280;61141;46.204;19.774;2023-04-08T08:30:06;100815.88;;;8.01;81.41
72961;BME280;61141;46.204;19.774;2023-04-08T08:33:13;100817.81;;;8.25;78.42
72961;BME280;61141;46.204;19.774;2023-04-08T08:36:16;100812.94;;;8.43;78.60
72961;BME280;61141;46.204;19.774;2023-04-08T08:39:19;100814.38;;;8.76;77.64
72961;BME280;61141;46.204;19.774;2023-04-08T08:42:23;100818.28;;;8.51;75.76
72961;BME280;61141;46.204;19.774;2023-04-08T08:46:44;100824.81;;;9.42;75.57
72961;BME280;61141;46.204;19.774;2023-04-08T08:49:49;100824.81;;;9.42;75.57
72961;BME280;61141;46.204;19.774;2023-04-08T08:52:52;100822.84;;;8.99;75.05
72961;BME280;61141;46.204;19.774;2023-04-08T08:55:55;100828.62;;;8.58;75.81
72961;BME280;61141;46.204;19.774;2023-04-08T08:59:01;100822.94;;;8.26;75.13
72961;BME280;61141;46.204;19.774;2023-04-08T09:02:22;100826.22;;;8.56;75.51
72961;BME280;61141;46.204;19.774;2023-04-08T09:05:25;100823.41;;;8.28;76.48
72961;BME280;61141;46.204;19.774;2023-04-08T09:08:30;100804.31;;;8.16;77.04
72961;BME280;61141;46.204;19.774;2023-04-08T09:11:33;100824.97;;;7.93;77.85
72961;BME280;61141;46.204;19.774;2023-04-08T09:14:36;100824.97;;;8.17;78.33
72961;BME280;61141;46.204;19.774;2023-04-08T09:17:39;100830.34;;;8.38;78.46
72961;BME280;61141;46.204;19.774;2023-04-08T09:20:52;100823.53;;;8.44;77.48
72961;BME280;61141;46.204;19.774;2023-04-08T09:23:55;100835.12;;;8.41;77.48
72961;BME280;61141;46.204;19.774;2023-04-08T09:26:58;100838.22;;;7.70;77.40
72961;BME280;61141;46.204;19.774;2023-04-08T09:30:14;100837.25;;;8.23;78.30
72961;BME280;61141;46.204;19.774;2023-04-08T09:33:17;100845.09;;;8.13;77.08
72961;BME280;61141;46.204;19.774;2023-04-08T09:36:20;100843.75;;;8.19;78.14
72961;BME280;61141;46.204;19.774;2023-04-08T09:39:23;100840.81;;;8.36;77.20
72961;BME280;61141;46.204;19.774;2023-04-08T09:42:26;100843.66;;;8.64;78.35
72961;BME280;61141;46.204;19.774;2023-04-08T09:45:29;100843.78;;;8.95;74.97
72961;BME280;61141;46.204;19.774;2023-04-08T09:48:39;100841.31;;;8.90;76.97
72961;BME280;61141;46.204;19.774;2023-04-08T09:51:58;100846.47;;;8.67;76.16
72961;BME280;61141;46.204;19.774;2023-04-08T09:55:06;100830.25;;;8.86;75.55
72961;BME280;61141;46.204;19.774;2023-04-08T09:58:15;100848.53;;;9.38;74.11
72961;BME280;61141;46.204;19.774;2023-04-08T10:01:23;100849.22;;;9.07;74.69
72961;BME280;61141;46.204;19.774;2023-04-08T10:04:30;100852.81;;;9.23;75.02
72961;BME280;61141;46.204;19.774;2023-04-08T10:07:38;100857.50;;;8.71;73.62
72961;BME280;61141;46.204;19.774;2023-04-08T10:10:44;100846.22;;;8.84;75.04
72961;BME280;61141;46.204;19.774;2023-04-08T10:13:49;100850.75;;;9.20;74.08
72961;BME280;61141;46.204;19.774;2023-04-08T10:17:23;100844.81;;;9.58;75.51
72961;BME280;61141;46.204;19.774;2023-04-08T10:24:08;100836.41;;;9.51;72.99
72961;BME280;61141;46.204;19.774;2023-04-08T10:27:40;100851.66;;;9.52;73.44
72961;BME280;61141;46.204;19.774;2023-04-08T10:30:50;100842.06;;;9.58;73.41
72961;BME280;61141;46.204;19.774;2023-04-08T10:33:53;100846.94;;;9.09;73.27
72961;BME280;61141;46.204;19.774;2023-04-08T10:36:56;100851.56;;;9.21;75.59
72961;BME280;61141;46.204;19.774;2023-04-08T10:40:00;100857.50;;;8.71;74.72
72961;BME280;61141;46.204;19.774;2023-04-08T10:43:08;100853.31;;;8.37;75.38
72961;BME280;61141;46.204;19.774;2023-04-08T10:46:12;100851.28;;;8.34;76.20
72961;BME280;61141;46.204;19.774;2023-04-08T10:49:15;100840.00;;;8.11;77.08
72961;BME280;61141;46.204;19.774;2023-04-08T10:52:19;100847.63;;;8.54;75.23
72961;BME280;61141;46.204;19.774;2023-04-08T10:55:27;100846.69;;;8.62;74.86
72961;BME280;61141;46.204;19.774;2023-04-08T10:58:30;100847.53;;;8.39;76.08
72961;BME280;61141;46.204;19.774;2023-04-08T11:01:39;100851.38;;;8.62;74.59
72961;BME280;61141;46.204;19.774;2023-04-08T11:04:43;100843.31;;;8.29;75.93
72961;BME280;61141;46.204;19.774;2023-04-08T11:07:46;100849.22;;;8.55;76.48
72961;BME280;61141;46.204;19.774;2023-04-08T11:10:49;100846.94;;;8.69;74.86
72961;BME280;61141;46.204;19.774;2023-04-08T11:13:55;100850.91;;;9.12;73.92
72961;BME280;61141;46.204;19.774;2023-04-08T11:16:58;100849.75;;;8.85;73.40
72961;BME280;61141;46.204;19.774;2023-04-08T11:20:03;100856.56;;;8.79;73.34
72961;BME280;61141;46.204;19.774;2023-04-08T11:23:14;100851.22;;;9.22;73.49
72961;BME280;61141;46.204;19.774;2023-04-08T11:26:20;100847.59;;;9.18;72.38
72961;BME280;61141;46.204;19.774;2023-04-08T11:29:23;100843.00;;;9.50;74.28
72961;BME280;61141;46.204;19.774;2023-04-08T11:32:26;100841.06;;;8.95;74.52
72961;BME280;61141;46.204;19.774;2023-04-08T11:35:30;100852.12;;;9.26;74.86
72961;BME280;61141;46.204;19.774;2023-04-08T11:38:38;100848.19;;;9.12;76.58
72961;BME280;61141;46.204;19.774;2023-04-08T11:41:41;100849.78;;;9.13;76.64
72961;BME280;61141;46.204;19.774;2023-04-08T11:44:45;100847.06;;;9.01;75.80
72961;BME280;61141;46.204;19.774;2023-04-08T11:47:48;100850.34;;;8.54;75.94
72961;BME280;61141;46.204;19.774;2023-04-08T11:51:05;100853.28;;;8.73;77.40
72961;BME280;61141;46.204;19.774;2023-04-08T11:54:25;100848.38;;;8.91;75.73
72961;BME280;61141;46.204;19.774;2023-04-08T11:57:28;100855.13;;;9.09;74.83
72961;BME280;61141;46.204;19.774;2023-04-08T12:00:31;100853.00;;;8.39;75.43
72961;BME280;61141;46.204;19.774;2023-04-08T12:03:34;100846.06;;;8.41;75.53
72961;BME280;61141;46.204;19.774;2023-04-08T12:06:37;100851.69;;;8.24;75.44
72961;BME280;61141;46.204;19.774;2023-04-08T12:09:40;100851.25;;;8.10;76.99
72961;BME280;61141;46.204;19.774;2023-04-08T12:12:43;100843.31;;;8.53;76.49
72961;BME280;61141;46.204;19.774;2023-04-08T12:15:46;100838.81;;;8.85;76.54
72961;BME280;61141;46.204;19.774;2023-04-08T12:18:48;100847.44;;;8.99;75.89
72961;BME280;61141;46.204;19.774;2023-04-08T12:21:52;100849.44;;;8.74;75.16
72961;BME280;61141;46.204;19.774;2023-04-08T12:24:54;100847.37;;;8.59;75.96
72961;BME280;61141;46.204;19.774;2023-04-08T12:28:00;100845.22;;;8.16;76.64
72961;BME280;61141;46.204;19.774;2023-04-08T12:31:04;100853.50;;;8.08;77.28
72961;BME280;61141;46.204;19.774;2023-04-08T12:34:08;100850.34;;;8.06;79.14
72961;BME280;61141;46.204;19.774;2023-04-08T12:37:10;100845.91;;;8.25;77.62
72961;BME280;61141;46.204;19.774;2023-04-08T12:40:14;100851.91;;;8.07;78.33
72961;BME280;61141;46.204;19.774;2023-04-08T12:43:18;100848.75;;;8.17;79.12
72961;BME280;61141;46.204;19.774;2023-04-08T12:46:22;100854.22;;;8.17;79.35
72961;BME280;61141;46.204;19.774;2023-04-08T12:49:25;100848.75;;;8.17;80.14
72961;BME280;61141;46.204;19.774;2023-04-08T12:52:29;100848.06;;;8.08;81.62
72961;BME280;61141;46.204;19.774;2023-04-08T12:55:32;100844.88;;;8.06;81.15
72961;BME280;61141;46.204;19.774;2023-04-08T12:58:35;100854.47;;;8.36;81.00
72961;BME280;61141;46.204;19.774;2023-04-08T13:01:38;100850.25;;;8.39;78.96
72961;BME280;61141;46.204;19.774;2023-04-08T13:04:41;100843.66;;;8.40;79.63
72961;BME280;61141;46.204;19.774;2023-04-08T13:07:45;100849.53;;;8.17;81.43
72961;BME280;61141;46.204;19.774;2023-04-08T13:10:49;100848.28;;;8.15;83.25
72961;BME280;61141;46.204;19.774;2023-04-08T13:13:52;100852.31;;;8.30;82.64
72961;BME280;61141;46.204;19.774;2023-04-08T13:16:55;100836.03;;;8.09;83.34
72961;BME280;61141;46.204;19.774;2023-04-08T13:20:00;100841.03;;;8.19;83.42
72961;BME280;61141;46.204;19.774;2023-04-08T13:23:03;100836.00;;;7.97;84.74
72961;BME280;61141;46.204;19.774;2023-04-08T13:26:06;100847.13;;;8.04;84.09
72961;BME280;61141;46.204;19.774;2023-04-08T13:29:09;100843.50;;;8.12;83.56
72961;BME280;61141;46.204;19.774;2023-04-08T13:32:12;100844.25;;;8.33;84.21
72961;BME280;61141;46.204;19.774;2023-04-08T13:35:15;100850.78;;;8.08;84.90
72961;BME280;61141;46.204;19.774;2023-04-08T13:38:18;100838.97;;;8.16;85.15
72961;BME280;61141;46.204;19.774;2023-04-08T13:41:20;100837.63;;;8.22;85.06
72961;BME280;61141;46.204;19.774;2023-04-08T13:44:23;100834.97;;;8.01;85.80
72961;BME280;61141;46.204;19.774;2023-04-08T13:47:27;100845.97;;;7.93;84.00
72961;BME280;61141;46.204;19.774;2023-04-08T13:50:30;100832.56;;;7.88;86.80
72961;BME280;61141;46.204;19.774;2023-04-08T13:53:33;100843.13;;;7.77;86.50
72961;BME280;61141;46.204;19.774;2023-04-08T13:56:36;100844.53;;;7.95;86.90
72961;BME280;61141;46.204;19.774;2023-04-08T13:59:39;100838.81;;;7.88;87.01
72961;BME280;61141;46.204;19.774;2023-04-08T14:02:45;100842.25;;;7.97;86.10
72961;BME280;61141;46.204;19.774;2023-04-08T14:05:48;100839.84;;;7.84;85.35
72961;BME280;61141;46.204;19.774;2023-04-08T14:08:52;100840.06;;;7.91;86.24
72961;BME280;61141;46.204;19.774;2023-04-08T14:11:55;100832.34;;;7.93;84.77
72961;BME280;61141;46.204;19.774;2023-04-08T14:14:58;100843.87;;;7.65;86.16
72961;BME280;61141;46.204;19.774;2023-04-08T14:18:01;100843.50;;;7.43;87.58
72961;BME280;61141;46.204;19.774;2023-04-08T14:21:05;100845.91;;;7.24;88.69
72961;BME280;61141;46.204;19.774;2023-04-08T14:24:09;100841.91;;;7.42;88.00
72961;BME280;61141;46.204;19.774;2023-04-08T14:27:12;100842.44;;;7.35;87.28
72961;BME280;61141;46.204;19.774;2023-04-08T14:30:15;100847.50;;;7.57;88.22
72961;BME280;61141;46.204;19.774;2023-04-08T14:33:18;100848.38;;;7.37;88.35
72961;BME280;61141;46.204;19.774;2023-04-08T14:36:21;100843.87;;;7.21;89.50
72961;BME280;61141;46.204;19.774;2023-04-08T14:39:25;100842.09;;;7.04;90.67
72961;BME280;61141;46.204;19.774;2023-04-08T14:42:29;100845.31;;;7.18;88.45
72961;BME280;61141;46.204;19.774;2023-04-08T14:45:31;100843.72;;;7.17;87.62
72961;BME280;61141;46.204;19.774;2023-04-08T14:48:34;100842.78;;;7.34;88.34
72961;BME280;61141;46.204;19.774;2023-04-08T14:51:37;100846.19;;;7.31;90.73
72961;BME280;61141;46.204;19.774;2023-04-08T14:54:40;100844.41;;;7.47;89.40
72961;BME280;61141;46.204;19.774;2023-04-08T14:57:44;100839.97;;;7.42;90.31
72961;BME280;61141;46.204;19.774;2023-04-08T15:00:47;100836.06;;;7.31;89.27
72961;BME280;61141;46.204;19.774;2023-04-08T15:03:49;100836.91;;;7.44;89.61
72961;BME280;61141;46.204;19.774;2023-04-08T15:06:52;100840.81;;;7.22;89.16
72961;BME280;61141;46.204;19.774;2023-04-08T15:09:55;100835.69;;;7.21;90.09
72961;BME280;61141;46.204;19.774;2023-04-08T15:12:58;100835.81;;;7.24;90.49
72961;BME280;61141;46.204;19.774;2023-04-08T15:16:01;100834.75;;;7.17;89.65
72961;BME280;61141;46.204;19.774;2023-04-08T15:19:04;100842.12;;;7.16;90.42
72961;BME280;61141;46.204;19.774;2023-04-08T15:22:07;100831.69;;;7.18;90.40
72961;BME280;61141;46.204;19.774;2023-04-08T15:25:10;100841.09;;;7.08;90.76
72961;BME280;61141;46.204;19.774;2023-04-08T15:28:13;100838.94;;;7.14;90.51
72961;BME280;61141;46.204;19.774;2023-04-08T15:31:16;100836.97;;;7.23;90.97
72961;BME280;61141;46.204;19.774;2023-04-08T15:34:18;100845.88;;;7.12;90.97
72961;BME280;61141;46.204;19.774;2023-04-08T15:37:21;100836.91;;;7.11;91.67
72961;BME280;61141;46.204;19.774;2023-04-08T15:40:24;100834.84;;;7.08;92.57
72961;BME280;61141;46.204;19.774;2023-04-08T15:43:28;100840.56;;;7.15;91.89
72961;BME280;61141;46.204;19.774;2023-04-08T15:46:31;100839.63;;;7.11;91.48
72961;BME280;61141;46.204;19.774;2023-04-08T15:49:37;100844.13;;;7.07;92.47
72961;BME280;61141;46.204;19.774;2023-04-08T15:52:40;100850.84;;;7.09;93.17
72961;BME280;61141;46.204;19.774;2023-04-08T15:55:43;100843.03;;;6.87;92.97
72961;BME280;61141;46.204;19.774;2023-04-08T15:58:46;100853.59;;;7.09;92.53
72961;BME280;61141;46.204;19.774;2023-04-08T16:01:49;100846.75;;;7.03;93.07
72961;BME280;61141;46.204;19.774;2023-04-08T16:04:52;100851.09;;;6.96;94.06
72961;BME280;61141;46.204;19.774;2023-04-08T16:07:54;100855.81;;;7.07;92.50
72961;BME280;61141;46.204;19.774;2023-04-08T16:11:02;100842.34;;;7.11;91.64